createdAt,value
2018-08-09T00:04:31.299Z,19.1
2018-08-09T00:06:31.419Z,19
2018-08-09T00:09:31.573Z,19.1
2018-08-09T00:32:33.018Z,19
2018-08-09T00:44:33.729Z,18.9
2018-08-09T00:50:34.091Z,18.8
2018-08-09T00:57:34.558Z,18.6
2018-08-09T01:03:34.889Z,18.5
2018-08-09T01:09:35.299Z,18.4
2018-08-09T01:15:35.660Z,18.3
2018-08-09T01:20:35.935Z,18.1
2018-08-09T01:25:36.286Z,18
2018-08-09T01:30:36.598Z,17.9
2018-08-09T01:35:36.859Z,17.8
2018-08-09T01:41:37.562Z,17.6
2018-08-09T01:47:37.863Z,17.5
2018-08-09T02:11:39.505Z,17.4
2018-08-09T02:12:39.418Z,17.5
2018-08-09T02:13:39.506Z,17.4
2018-08-09T02:24:40.189Z,17.2
2018-08-09T02:36:40.882Z,17.1
2018-08-09T02:43:41.339Z,17
2018-08-09T02:51:41.825Z,16.9
2018-08-09T02:55:42.095Z,16.8
2018-08-09T02:58:42.295Z,16.6
2018-08-09T03:02:42.479Z,16.5
2018-08-09T03:06:42.793Z,16.4
2018-08-09T03:09:42.927Z,16.3
2018-08-09T03:14:43.219Z,16.1
2018-08-09T03:18:43.555Z,16
2018-08-09T03:26:43.968Z,15.9
2018-08-09T03:43:45.021Z,15.8
2018-08-09T03:55:45.769Z,15.9
2018-08-09T03:56:45.816Z,15.8
2018-08-09T03:58:45.941Z,15.9
2018-08-09T03:59:46.152Z,15.8
2018-08-09T04:00:46.104Z,15.9
2018-08-09T04:20:47.340Z,16
2018-08-09T04:24:47.582Z,16.1
2018-08-09T04:29:47.922Z,16.3
2018-08-09T04:31:48.013Z,16.4
2018-08-09T04:34:48.229Z,16.5
2018-08-09T04:38:48.456Z,16.6
2018-08-09T04:40:48.555Z,16.8
2018-08-09T04:42:48.879Z,16.9
2018-08-09T04:45:49.052Z,17
2018-08-09T04:47:49.220Z,17.1
2018-08-09T04:50:49.430Z,17.2
2018-08-09T04:52:49.785Z,17.4
2018-08-09T04:54:49.911Z,17.5
2018-08-09T04:57:50.355Z,17.6
2018-08-09T04:59:50.762Z,17.8
2018-08-09T05:02:50.968Z,17.9
2018-08-09T05:04:51.091Z,18
2018-08-09T05:07:51.275Z,18.1
2018-08-09T05:09:51.397Z,18.3
2018-08-09T05:10:51.732Z,18.4
2018-08-09T05:12:52.167Z,18.5
2018-08-09T05:13:52.194Z,18.6
2018-08-09T05:14:52.404Z,18.8
2018-08-09T05:16:52.683Z,19
2018-08-09T05:17:52.739Z,19.3
2018-08-09T05:18:52.777Z,19.6
2018-08-09T05:19:52.847Z,19.8
2018-08-09T05:20:52.941Z,19.9
2018-08-09T05:21:52.978Z,19.8
2018-08-09T05:29:53.819Z,19.9
2018-08-09T05:31:54.158Z,20
2018-08-09T05:37:54.501Z,20.1
2018-08-09T05:41:54.783Z,20.3
2018-08-09T05:43:54.936Z,20.4
2018-08-09T05:44:54.970Z,20.5
2018-08-09T05:45:55.030Z,20.6
2018-08-09T05:47:55.773Z,20.8
2018-08-09T05:49:55.851Z,20.9
2018-08-09T05:51:55.995Z,21
2018-08-09T05:52:56.163Z,21.1
2018-08-09T05:54:56.173Z,21.2
2018-08-09T05:55:56.278Z,21.4
2018-08-09T05:57:56.486Z,21.5
2018-08-09T05:59:56.497Z,21.6
2018-08-09T06:01:57.156Z,21.8
2018-08-09T06:03:57.328Z,21.9
2018-08-09T06:05:58.102Z,22
2018-08-09T06:08:58.341Z,22.1
2018-08-09T06:09:58.409Z,22.2
2018-08-09T06:10:58.485Z,22.4
2018-08-09T06:11:58.537Z,22.5
2018-08-09T06:12:58.771Z,22.6
2018-08-09T06:13:58.833Z,22.8
2018-08-09T06:15:58.961Z,22.9
2018-08-09T06:16:59.023Z,23
2018-08-09T06:18:59.462Z,23.1
2018-08-09T06:19:59.209Z,23.3
2018-08-09T06:20:59.260Z,23.4
2018-08-09T06:21:59.330Z,23.5
2018-08-09T06:22:59.440Z,23.6
2018-08-09T06:23:59.500Z,23.9
2018-08-09T06:24:59.559Z,24.1
2018-08-09T06:25:59.621Z,24.4
2018-08-09T06:26:59.669Z,24.6
2018-08-09T06:27:59.748Z,24.7
2018-08-09T06:28:59.796Z,24.9
2018-08-09T06:29:59.865Z,25
2018-08-09T06:44:01.706Z,24.9
2018-08-09T06:47:01.397Z,24.7
2018-08-09T06:49:01.865Z,24.6
2018-08-09T06:51:01.309Z,24.7
2018-08-09T06:52:01.395Z,24.9
2018-08-09T06:53:01.593Z,25
2018-08-09T06:54:01.611Z,25.1
2018-08-09T06:55:01.641Z,25.3
2018-08-09T06:57:01.706Z,25.4
2018-08-09T06:58:01.799Z,25.5
2018-08-09T07:01:01.915Z,25.6
2018-08-09T07:03:02.109Z,25.8
2018-08-09T07:06:03.172Z,25.9
2018-08-09T07:10:03.788Z,26
2018-08-09T07:13:03.906Z,26.1
2018-08-09T07:15:04.032Z,26.2
2018-08-09T07:17:04.405Z,26.4
2018-08-09T07:19:04.471Z,26.5
2018-08-09T07:20:04.585Z,26.6
2018-08-09T07:22:04.675Z,26.8
2018-08-09T07:24:04.780Z,26.9
2018-08-09T07:25:05.114Z,27
2018-08-09T07:26:05.186Z,27.1
2018-08-09T07:27:05.300Z,27.2
2018-08-09T07:30:05.498Z,27.5
2018-08-09T07:31:05.531Z,27.6
2018-08-09T07:32:05.588Z,27.9
2018-08-09T07:33:05.642Z,28.1
2018-08-09T07:34:05.917Z,28.4
2018-08-09T07:35:05.934Z,28.6
2018-08-09T07:36:06.028Z,29
2018-08-09T07:37:06.058Z,29.3
2018-08-09T07:38:06.184Z,29.5
2018-08-09T07:39:06.222Z,29.6
2018-08-09T07:41:06.351Z,29.5
2018-08-09T07:44:07.309Z,29.4
2018-08-09T07:46:07.638Z,29.5
2018-08-09T07:48:07.750Z,29.4
2018-08-09T07:49:08.009Z,29.3
2018-08-09T07:50:08.347Z,29.1
2018-08-09T07:51:08.453Z,29
2018-08-09T07:54:08.589Z,28.9
2018-08-09T07:57:08.836Z,28.7
2018-08-09T07:59:08.908Z,28.9
2018-08-09T08:03:09.134Z,29
2018-08-09T08:04:09.199Z,29.1
2018-08-09T08:05:09.267Z,29.4
2018-08-09T08:06:09.344Z,29.5
2018-08-09T08:11:09.612Z,29.4
2018-08-09T08:13:09.718Z,29.5
2018-08-09T08:14:09.774Z,29.8
2018-08-09T08:15:09.961Z,30.1
2018-08-09T08:16:09.901Z,30.6
2018-08-09T08:17:09.969Z,30.8
2018-08-09T08:18:10.062Z,30.9
2018-08-09T08:20:10.420Z,30.8
2018-08-09T08:25:10.661Z,30.6
2018-08-09T08:28:10.840Z,30.5
2018-08-09T08:34:11.219Z,30.6
2018-08-09T08:35:11.291Z,30.8
2018-08-09T08:36:11.370Z,30.9
2018-08-09T08:37:11.434Z,31.1
2018-08-09T08:38:11.491Z,31.4
2018-08-09T08:39:11.584Z,31.8
2018-08-09T08:40:11.636Z,32.2
2018-08-09T08:41:11.883Z,32.7
2018-08-09T08:42:11.944Z,33.2
2018-08-09T08:43:12.012Z,33.9
2018-08-09T08:44:12.075Z,34.4
2018-08-09T08:45:12.139Z,35.2
2018-08-09T08:46:12.196Z,35.6
2018-08-09T08:47:12.248Z,35.4
2018-08-09T08:48:12.336Z,35.6
2018-08-09T08:49:12.386Z,36.1
2018-08-09T08:50:12.427Z,36.6
2018-08-09T08:51:12.519Z,37.2
2018-08-09T08:52:12.605Z,38.1
2018-08-09T08:53:12.810Z,39.1
2018-08-09T08:54:12.837Z,39.9
2018-08-09T08:55:12.950Z,40.6
2018-08-09T08:56:12.999Z,41.2
2018-08-09T08:57:13.082Z,41.9
2018-08-09T08:58:13.631Z,42.5
2018-08-09T08:59:13.143Z,43.1
2018-08-09T09:00:13.252Z,43.7
2018-08-09T09:01:13.282Z,44
2018-08-09T09:02:13.388Z,44.4
2018-08-09T09:03:13.443Z,44.5
2018-08-09T09:04:13.514Z,44.6
2018-08-09T09:05:13.621Z,44.9
2018-08-09T09:06:13.602Z,45.2
2018-08-09T09:07:13.676Z,45.1
2018-08-09T09:08:13.724Z,46
2018-08-09T09:09:13.770Z,46.2
2018-08-09T09:10:13.830Z,46.1
2018-08-09T09:11:13.892Z,46.2
2018-08-09T09:12:13.950Z,46.1
2018-08-09T09:13:14.015Z,46.5
2018-08-09T09:14:14.077Z,47
2018-08-09T09:15:14.140Z,47.1
2018-08-09T09:16:14.259Z,47
2018-08-09T09:17:14.258Z,46.6
2018-08-09T09:18:14.331Z,46.9
2018-08-09T09:19:14.530Z,47.1
2018-08-09T09:20:14.498Z,47.2
2018-08-09T09:23:14.684Z,47.4
2018-08-09T09:26:14.813Z,47.5
2018-08-09T09:27:14.929Z,47.6
2018-08-09T09:29:15.055Z,47.7
2018-08-09T09:35:15.452Z,47.9
2018-08-09T09:36:15.437Z,48
2018-08-09T09:38:15.599Z,48.3
2018-08-09T09:39:15.617Z,48.4
2018-08-09T09:40:15.735Z,48.5
2018-08-09T09:42:15.817Z,48.6
2018-08-09T09:43:15.885Z,48.7
2018-08-09T09:45:15.989Z,48.9
2018-08-09T09:47:16.141Z,49
2018-08-09T09:51:16.381Z,48.9
2018-08-09T09:55:16.637Z,49
2018-08-09T09:56:16.700Z,49.1
2018-08-09T09:57:16.753Z,49.2
2018-08-09T09:58:16.813Z,49.5
2018-08-09T09:59:16.860Z,49.7
2018-08-09T10:00:16.935Z,50
2018-08-09T10:01:16.986Z,50.1
2018-08-09T10:02:17.040Z,50.4
2018-08-09T10:03:17.142Z,50.6
2018-08-09T10:04:17.181Z,50.9
2018-08-09T10:05:17.227Z,51.2
2018-08-09T10:06:17.301Z,51.4
2018-08-09T10:07:17.385Z,51.2
2018-08-09T10:08:17.464Z,51.4
2018-08-09T10:09:18.053Z,51.1
2018-08-09T10:10:18.166Z,50.8
2018-08-09T10:12:18.724Z,50.5
2018-08-09T10:13:18.787Z,49.4
2018-08-09T10:14:18.838Z,48.3
2018-08-09T10:15:18.903Z,47.7
2018-08-09T10:16:18.975Z,47.9
2018-08-09T10:18:19.095Z,47.2
2018-08-09T10:19:19.343Z,47
2018-08-09T10:20:19.443Z,46.1
2018-08-09T10:21:19.506Z,45.6
2018-08-09T10:22:19.576Z,45.4
2018-08-09T10:23:19.611Z,44.9
2018-08-09T10:24:19.644Z,44.4
2018-08-09T10:25:19.726Z,43.7
2018-08-09T10:26:19.771Z,43.1
2018-08-09T10:27:19.829Z,42.7
2018-08-09T10:28:19.975Z,42.2
2018-08-09T10:29:19.971Z,42
2018-08-09T10:30:20.057Z,41.7
2018-08-09T10:31:20.128Z,41.5
2018-08-09T10:32:20.163Z,41.2
2018-08-09T10:33:20.235Z,41
2018-08-09T10:34:20.305Z,40.8
2018-08-09T10:35:20.340Z,40.6
2018-08-09T10:36:20.383Z,40.5
2018-08-09T10:38:20.537Z,40.6
2018-08-09T10:39:20.613Z,40.8
2018-08-09T10:40:20.672Z,40.9
2018-08-09T10:41:20.750Z,41
2018-08-09T10:43:20.856Z,41.1
2018-08-09T10:44:20.944Z,41.2
2018-08-09T10:45:20.971Z,41.4
2018-08-09T10:46:21.003Z,41.6
2018-08-09T10:47:21.086Z,41.9
2018-08-09T10:48:21.177Z,42
2018-08-09T10:49:21.257Z,42.1
2018-08-09T10:51:21.347Z,42.2
2018-08-09T10:53:21.478Z,42.4
2018-08-09T10:55:21.577Z,42.2
2018-08-09T10:57:21.724Z,42.1
2018-08-09T10:58:21.772Z,42
2018-08-09T11:03:22.054Z,42.4
2018-08-09T11:04:22.169Z,42.7
2018-08-09T11:05:22.285Z,42.5
2018-08-09T11:06:22.272Z,42.2
2018-08-09T11:07:22.328Z,42.1
2018-08-09T11:08:22.419Z,43
2018-08-09T11:09:22.502Z,44.4
2018-08-09T11:10:22.549Z,44.9
2018-08-09T11:11:22.611Z,46.2
2018-08-09T11:12:22.638Z,46.7
2018-08-09T11:13:22.697Z,47.9
2018-08-09T11:14:22.777Z,49.4
2018-08-09T11:15:22.845Z,50.5
2018-08-09T11:16:22.863Z,51.4
2018-08-09T11:17:22.922Z,52.1
2018-08-09T11:18:22.990Z,52.7
2018-08-09T11:19:23.042Z,53.3
2018-08-09T11:20:23.132Z,53.6
2018-08-09T11:21:23.460Z,54
2018-08-09T11:22:23.579Z,54.4
2018-08-09T11:23:23.598Z,54.7
2018-08-09T11:24:23.661Z,55.1
2018-08-09T11:25:23.733Z,55.5
2018-08-09T11:26:23.793Z,55.6
2018-08-09T11:27:23.854Z,55.8
2018-08-09T11:31:24.060Z,55.9
2018-08-09T11:32:24.156Z,54.2
2018-08-09T11:33:24.226Z,51.7
2018-08-09T11:34:24.303Z,49.7
2018-08-09T11:35:24.365Z,48
2018-08-09T11:36:24.396Z,46.5
2018-08-09T11:37:24.659Z,45.1
2018-08-09T11:38:25.267Z,44
2018-08-09T11:39:25.303Z,43.1
2018-08-09T11:40:25.421Z,42.9
2018-08-09T11:41:25.457Z,43.9
2018-08-09T11:42:25.521Z,45.4
2018-08-09T11:43:25.557Z,47.1
2018-08-09T11:44:25.615Z,48.6
2018-08-09T11:45:25.688Z,49.5
2018-08-09T11:46:25.755Z,50.4
2018-08-09T11:47:25.795Z,51.2
2018-08-09T11:48:25.861Z,51.9
2018-08-09T11:49:25.987Z,52.4
2018-08-09T11:50:26.000Z,52.9
2018-08-09T11:51:26.047Z,53.4
2018-08-09T11:52:26.106Z,53.6
2018-08-09T11:53:26.201Z,53.9
2018-08-09T11:54:26.255Z,53.6
2018-08-09T11:55:26.362Z,52.1
2018-08-09T11:56:26.436Z,52.6
2018-08-09T11:57:26.478Z,53
2018-08-09T11:58:26.505Z,53.1
2018-08-09T11:59:26.581Z,53.4
2018-08-09T12:01:26.781Z,53.5
2018-08-09T12:02:26.769Z,53.6
2018-08-09T12:04:26.935Z,53.7
2018-08-09T12:05:26.943Z,53.4
2018-08-09T12:06:26.983Z,52.7
2018-08-09T12:07:27.357Z,51.5
2018-08-09T12:08:27.446Z,50.2
2018-08-09T12:09:27.524Z,48.6
2018-08-09T12:10:27.575Z,47.4
2018-08-09T12:11:27.623Z,47
2018-08-09T12:12:27.662Z,46.7
2018-08-09T12:14:27.766Z,47.7
2018-08-09T12:15:27.817Z,48.6
2018-08-09T12:16:27.872Z,49.2
2018-08-09T12:17:27.944Z,49.9
2018-08-09T12:18:28.018Z,50.2
2018-08-09T12:19:28.068Z,50.8
2018-08-09T12:20:28.136Z,51.1
2018-08-09T12:21:28.276Z,51.5
2018-08-09T12:22:28.435Z,51.6
2018-08-09T12:23:28.462Z,51.9
2018-08-09T12:24:28.501Z,52
2018-08-09T12:25:28.553Z,52.2
2018-08-09T12:26:28.685Z,52.5
2018-08-09T12:27:28.708Z,52.9
2018-08-09T12:28:29.098Z,53.1
2018-08-09T12:29:29.198Z,53.3
2018-08-09T12:30:29.309Z,53.5
2018-08-09T12:31:29.283Z,53.6
2018-08-09T12:32:29.417Z,53.7
2018-08-09T12:34:29.524Z,53.9
2018-08-09T12:39:29.813Z,53.4
2018-08-09T12:40:29.892Z,53.5
2018-08-09T12:41:29.926Z,53.6
2018-08-09T12:42:29.998Z,53.7
2018-08-09T12:43:30.021Z,53.9
2018-08-09T12:44:30.136Z,54
2018-08-09T12:45:30.218Z,53.1
2018-08-09T12:46:30.269Z,53.4
2018-08-09T12:47:30.312Z,52.1
2018-08-09T12:48:30.358Z,50.5
2018-08-09T12:49:30.396Z,49.1
2018-08-09T12:50:30.497Z,48.3
2018-08-09T12:51:30.685Z,47.4
2018-08-09T12:53:30.803Z,48.9
2018-08-09T12:54:30.845Z,49.1
2018-08-09T12:55:30.911Z,50.2
2018-08-09T12:56:30.971Z,51.4
2018-08-09T12:57:31.034Z,52.4
2018-08-09T12:58:31.111Z,53.3
2018-08-09T12:59:31.198Z,54.1
2018-08-09T13:00:31.268Z,55
2018-08-09T13:01:31.325Z,55.8
2018-08-09T13:02:31.396Z,56.2
2018-08-09T13:03:31.417Z,55.4
2018-08-09T13:04:31.501Z,54
2018-08-09T13:05:31.583Z,53.3
2018-08-09T13:06:31.637Z,52
2018-08-09T13:07:31.672Z,50.8
2018-08-09T13:08:31.711Z,49.6
2018-08-09T13:09:31.793Z,48.7
2018-08-09T13:10:31.840Z,48
2018-08-09T13:11:31.914Z,48.1
2018-08-09T13:12:31.957Z,48.3
2018-08-09T13:13:32.024Z,47.5
2018-08-09T13:14:32.105Z,46.9
2018-08-09T13:15:32.149Z,46.4
2018-08-09T13:16:32.213Z,45.8
2018-08-09T13:17:32.294Z,45
2018-08-09T13:18:32.446Z,44.5
2018-08-09T13:19:32.430Z,43.9
2018-08-09T13:20:32.508Z,44
2018-08-09T13:21:32.576Z,44.5
2018-08-09T13:22:32.634Z,44.6
2018-08-09T13:23:32.824Z,46
2018-08-09T13:24:32.746Z,47.2
2018-08-09T13:25:32.776Z,48.6
2018-08-09T13:26:32.861Z,49.9
2018-08-09T13:27:32.907Z,50.9
2018-08-09T13:28:32.967Z,51.7
2018-08-09T13:29:33.359Z,52.5
2018-08-09T13:30:33.104Z,53
2018-08-09T13:31:33.181Z,53.5
2018-08-09T13:32:33.244Z,53.9
2018-08-09T13:33:33.323Z,54
2018-08-09T13:36:33.488Z,54.1
2018-08-09T13:37:33.546Z,54.2
2018-08-09T13:38:33.649Z,54.4
2018-08-09T13:40:33.701Z,54.5
2018-08-09T13:41:33.763Z,54.6
2018-08-09T13:43:33.886Z,54.7
2018-08-09T13:45:34.009Z,54.5
2018-08-09T13:46:34.139Z,54.6
2018-08-09T13:47:34.129Z,54.7
2018-08-09T13:48:34.259Z,54.9
2018-08-09T13:49:34.274Z,55
2018-08-09T13:50:34.373Z,53.6
2018-08-09T13:51:34.655Z,53.1
2018-08-09T13:52:34.631Z,53.6
2018-08-09T13:53:34.682Z,54
2018-08-09T13:54:34.742Z,54.4
2018-08-09T13:55:34.801Z,54.6
2018-08-09T13:56:34.863Z,55
2018-08-09T13:58:34.987Z,53.4
2018-08-09T13:59:35.060Z,51.6
2018-08-09T14:00:35.127Z,50.6
2018-08-09T14:01:35.171Z,50.4
2018-08-09T14:02:35.270Z,49.1
2018-08-09T14:03:35.354Z,49.9
2018-08-09T14:04:35.418Z,50.8
2018-08-09T14:05:35.517Z,51.6
2018-08-09T14:06:35.529Z,52.1
2018-08-09T14:07:35.599Z,52.4
2018-08-09T14:08:35.645Z,52.5
2018-08-09T14:09:35.719Z,52.2
2018-08-09T14:10:35.809Z,52
2018-08-09T14:11:35.787Z,51.4
2018-08-09T14:12:35.890Z,50
2018-08-09T14:13:35.971Z,48.7
2018-08-09T14:14:36.033Z,47.9
2018-08-09T14:15:36.039Z,48.4
2018-08-09T14:16:36.135Z,49.6
2018-08-09T14:17:36.205Z,50.6
2018-08-09T14:18:36.262Z,51.4
2018-08-09T14:19:36.325Z,52
2018-08-09T14:20:36.367Z,52.4
2018-08-09T14:21:36.426Z,52.9
2018-08-09T14:22:36.512Z,53
2018-08-09T14:23:36.584Z,52.7
2018-08-09T14:24:36.737Z,52.6
2018-08-09T14:25:36.807Z,51.4
2018-08-09T14:26:36.726Z,50.1
2018-08-09T14:27:36.782Z,50.4
2018-08-09T14:28:37.521Z,50.8
2018-08-09T14:29:37.453Z,51
2018-08-09T14:31:37.536Z,51.1
2018-08-09T14:32:37.670Z,51.2
2018-08-09T14:33:37.668Z,51.5
2018-08-09T14:34:37.921Z,51.6
2018-08-09T14:36:37.850Z,51.5
2018-08-09T14:38:37.984Z,51.2
2018-08-09T14:39:38.041Z,51.1
2018-08-09T14:43:38.289Z,50.5
2018-08-09T14:44:39.137Z,49.9
2018-08-09T14:45:39.097Z,49.2
2018-08-09T14:46:39.140Z,48.4
2018-08-09T14:47:39.201Z,47.2
2018-08-09T14:48:39.305Z,46.1
2018-08-09T14:49:39.371Z,45
2018-08-09T14:50:39.686Z,44
2018-08-09T14:51:39.747Z,43
2018-08-09T14:52:39.783Z,42.1
2018-08-09T14:53:40.199Z,41.4
2018-08-09T14:54:39.903Z,40.6
2018-08-09T14:55:39.979Z,39.9
2018-08-09T14:56:40.032Z,39.2
2018-08-09T14:57:40.104Z,38.7
2018-08-09T14:58:40.143Z,38.2
2018-08-09T14:59:40.241Z,37.7
2018-08-09T15:00:40.330Z,37.4
2018-08-09T15:01:40.319Z,37
2018-08-09T15:02:40.393Z,36.6
2018-08-09T15:03:40.425Z,36.4
2018-08-09T15:04:40.553Z,36.1
2018-08-09T15:05:40.630Z,36
2018-08-09T15:06:40.860Z,35.7
2018-08-09T15:07:40.942Z,35.6
2018-08-09T15:08:40.973Z,35.4
2018-08-09T15:09:41.048Z,35.2
2018-08-09T15:10:41.143Z,35.1
2018-08-09T15:11:41.223Z,35
2018-08-09T15:12:41.250Z,34.9
2018-08-09T15:16:41.516Z,35
2018-08-09T15:17:41.590Z,35.1
2018-08-09T15:18:41.628Z,35.2
2018-08-09T15:19:41.691Z,35.4
2018-08-09T15:21:41.849Z,35.5
2018-08-09T15:22:41.951Z,35.6
2018-08-09T15:30:42.394Z,35.5
2018-08-09T15:33:42.541Z,35.4
2018-08-09T15:35:42.672Z,35.2
2018-08-09T15:39:42.890Z,35.1
2018-08-09T15:41:43.821Z,35
2018-08-09T15:49:44.770Z,34.9
2018-08-09T15:51:44.930Z,34.7
2018-08-09T15:52:44.990Z,34.6
2018-08-09T15:53:45.340Z,34.5
2018-08-09T15:55:45.504Z,34.4
2018-08-09T15:57:46.201Z,34.2
2018-08-09T15:59:46.306Z,34.1
2018-08-09T16:00:46.397Z,34
2018-08-09T16:01:46.456Z,33.9
2018-08-09T16:02:46.503Z,33.7
2018-08-09T16:03:46.555Z,33.5
2018-08-09T16:04:46.597Z,33.2
2018-08-09T16:05:46.673Z,33
2018-08-09T16:06:46.777Z,32.6
2018-08-09T16:07:46.787Z,32.4
2018-08-09T16:08:46.850Z,32.2
2018-08-09T16:09:46.984Z,32
2018-08-09T16:10:46.985Z,31.8
2018-08-09T16:11:47.034Z,31.6
2018-08-09T16:12:47.095Z,31.5
2018-08-09T16:13:47.154Z,31.4
2018-08-09T16:14:47.215Z,31.1
2018-08-09T16:15:47.347Z,31
2018-08-09T16:16:47.366Z,30.9
2018-08-09T16:17:47.446Z,30.6
2018-08-09T16:18:47.533Z,30.4
2018-08-09T16:19:47.550Z,30.1
2018-08-09T16:20:47.617Z,29.9
2018-08-09T16:21:47.652Z,29.6
2018-08-09T16:22:47.773Z,29.4
2018-08-09T16:23:47.815Z,29
2018-08-09T16:24:47.892Z,28.7
2018-08-09T16:25:47.943Z,28.5
2018-08-09T16:26:48.004Z,28.3
2018-08-09T16:27:48.383Z,28
2018-08-09T16:28:48.440Z,27.8
2018-08-09T16:29:48.487Z,27.6
2018-08-09T16:30:48.823Z,27.4
2018-08-09T16:31:48.863Z,27.1
2018-08-09T16:32:48.935Z,27
2018-08-09T16:33:48.986Z,26.8
2018-08-09T16:34:49.054Z,26.5
2018-08-09T16:35:49.156Z,26.1
2018-08-09T16:36:49.169Z,25.9
2018-08-09T16:37:49.277Z,25.8
2018-08-09T16:38:49.351Z,25.5
2018-08-09T16:39:49.412Z,25.4
2018-08-09T16:40:49.447Z,25.1
2018-08-09T16:41:49.506Z,24.7
2018-08-09T16:42:49.595Z,24.5
2018-08-09T16:43:49.664Z,24.1
2018-08-09T16:44:49.674Z,23.6
2018-08-09T16:45:49.734Z,23.1
2018-08-09T16:46:49.796Z,22.6
2018-08-09T16:47:49.849Z,22.1
2018-08-09T16:48:49.927Z,21.6
2018-08-09T16:49:49.975Z,21.2
2018-08-09T16:50:50.064Z,20.9
2018-08-09T16:51:50.109Z,20.6
2018-08-09T16:52:50.161Z,20.4
2018-08-09T16:53:50.247Z,20.1
2018-08-09T16:54:50.294Z,20
2018-08-09T16:55:50.401Z,19.8
2018-08-09T16:56:50.472Z,19.6
2018-08-09T16:57:50.502Z,19.5
2018-08-09T16:58:50.573Z,19.4
2018-08-09T16:59:50.656Z,19.3
2018-08-09T17:01:50.744Z,19.1
2018-08-09T17:02:50.876Z,19
2018-08-09T17:06:51.026Z,18.9
2018-08-09T17:16:51.652Z,19
2018-08-09T17:21:51.943Z,19.1
2018-08-09T17:25:52.197Z,19.3
2018-08-09T17:36:52.877Z,19.4
2018-08-09T17:39:53.059Z,19.5
2018-08-09T17:43:53.314Z,19.6
2018-08-09T17:51:53.827Z,19.5
2018-08-09T17:52:53.969Z,19.6
2018-08-09T18:01:54.535Z,19.8
2018-08-09T18:22:55.815Z,19.6
2018-08-09T18:31:56.400Z,19.5
2018-08-09T18:34:56.538Z,19.6
2018-08-09T18:35:56.595Z,19.5
2018-08-09T18:45:57.201Z,19.4
2018-08-09T18:52:57.624Z,19.3
2018-08-09T18:55:57.795Z,19.1
2018-08-09T19:01:58.170Z,19
2018-08-09T19:06:58.473Z,18.9
2018-08-09T19:10:58.716Z,18.8
2018-08-09T19:16:59.105Z,18.6
2018-08-09T19:22:59.480Z,18.5
2018-08-09T19:38:00.868Z,18.6
2018-08-09T19:54:01.608Z,18.8
2018-08-09T20:11:02.957Z,18.9
2018-08-09T20:13:03.393Z,18.8
2018-08-09T20:14:03.421Z,18.9
2018-08-09T20:28:05.756Z,19
2018-08-09T20:34:06.317Z,19.1
2018-08-09T20:38:06.339Z,19.3
2018-08-09T20:47:06.880Z,19.4
2018-08-09T20:48:06.961Z,19.3
2018-08-09T21:03:07.862Z,19.4
2018-08-09T21:09:08.276Z,19.5
2018-08-09T21:23:09.146Z,19.6
2018-08-09T21:32:10.034Z,19.8
2018-08-09T21:43:10.473Z,19.9
2018-08-09T22:10:12.137Z,20
2018-08-09T22:14:12.377Z,20.1
2018-08-09T22:19:12.641Z,20.3
2018-08-09T22:38:13.822Z,20.1
2018-08-09T22:45:14.321Z,20
2018-08-09T22:51:14.641Z,19.9
2018-08-09T22:52:14.700Z,20
2018-08-09T22:54:14.840Z,19.9
2018-08-09T22:55:14.856Z,20
2018-08-09T22:56:15.082Z,19.9
2018-08-09T22:57:15.032Z,20
2018-08-09T22:59:15.159Z,19.9
2018-08-09T23:10:15.803Z,19.8
2018-08-09T23:11:15.852Z,19.9
2018-08-09T23:12:15.906Z,19.8
2018-08-09T23:22:16.567Z,19.6
2018-08-09T23:27:16.832Z,19.5
